Nearby METAR Reports

 

EGHI - Southampton Wx C, Hampshire, United Kingdom
Distance from station: SE 2mi, 3km
Updated: 23/09/2018 21:50
NOT Current
Clear
Clear
 Wind from NW
Wind: NW 5 mph , 7 km/h
Temperature: 9°C
Wind Chill: 8°C
Dew Point: 4°C
Humidity: 71%
Barometer: 1030 hPa
Summary: Clear
Visibility: greater than 7 miles , 10 km
2018/09/23 20:50 EGHI 232050Z 31004KT 270V350 CAVOK 09/04 Q1030
EGVP - Middle Wallop, Hampshire, United Kingdom
Distance from station: NW 14mi, 23km
Updated: 24/09/2018 02:50
Clear
Clear
 Wind from W
Wind: W 7 mph , 11 km/h
Temperature: 6°C
Wind Chill: 4°C
Dew Point: 4°C
Humidity: 87%
Barometer: 1034 hPa
Clouds: Clear
Visibility: 6 miles , 10 km
2018/09/24 01:50 EGVP 240150Z AUTO 28006KT 9999 // NCD 06/04 Q1034
 
EGDM - Boscombe Down, Dorset, United Kingdom
Distance from station: NW 21mi, 34km
Updated: 24/09/2018 02:50
Clear
Clear
 Wind from WNW
Wind: WNW 7 mph , 11 km/h
Temperature: 5°C
Wind Chill: 2°C
Dew Point: 4°C
Humidity: 93%
Barometer: 1035 hPa
Clouds: Clear
Visibility: 6 miles , 10 km
2018/09/24 01:50 EGDM 240150Z AUTO 29006KT 9999 NCD 05/04 Q1035
EGHH - Bournemouth Airp, Dorset, United Kingdom
Distance from station: WSW 23mi, 38km
Updated: 23/09/2018 23:20
NOT Current
Clear
Clear
 Wind from NNW
Wind: NNW 9 mph , 15 km/h
Temperature: 5°C
Wind Chill: 2°C
Dew Point: 4°C
Humidity: 93%
Barometer: 1032 hPa
Summary: Clear
Visibility: greater than 7 miles , 10 km
2018/09/23 22:20 EGHH 232220Z 33008KT CAVOK 05/04 Q1032
 
EGVO - Odiham Raf, Hampshire, United Kingdom
Distance from station: NE 26mi, 42km
Updated: 24/09/2018 02:50
Clear
Clear
 Wind from W
Wind: W 8 mph , 13 km/h
Temperature: 6°C
Wind Chill: 3°C
Dew Point: 5°C
Humidity: 93%
Barometer: 1034 hPa
Clouds: Clear
Visibility: 6 miles , 10 km
2018/09/24 01:50 EGVO 240150Z AUTO 28007KT 9999 NCD 06/05 Q1034
EGLF - Farnborough, Hampshire, United Kingdom
Distance from station: NE 34mi, 56km
Updated: 23/09/2018 19:50
NOT Current
Partly cloudy
Partly cloudy
 Wind from NW
Wind: NW 6 mph , 9 km/h
Temperature: 10°C
Wind Chill: 9°C
Dew Point: 4°C
Humidity: 67%
Barometer: 1027 hPa
Clouds: Partly cloudy
Visibility: 6 miles , 10 km
2018/09/23 18:50 EGLF 231850Z 31005KT 9999 NSC 10/04 Q1027
 
EGDL - Lyneham Raf, Wiltshire, United Kingdom
Distance from station: NW 45mi, 72km
Updated: 21/06/2013 08:50
NOT Current
Mostly cloudy
Mostly cloudy
 Wind from WSW
Wind: WSW 9 mph , 15 km/h
Temperature: 14°C
Dew Point: 14°C
Humidity: 100%
Barometer: 1010 hPa
Clouds: Mostly cloudy
Cloud details: Mostly cloudy 61 m
Mostly cloudy 427 m
2013/06/21 07:50 EGDL 210750Z AUTO 25008KT //// // BKN002/// BKN014/// 14/14 Q1010
EGUB - Benson Raf, Oxfordshire, United Kingdom
Distance from station: NNE 47mi, 76km
Updated: 24/09/2018 02:50
Clear
Clear
 Wind from ENE
Wind: ENE 1 mph , 2 km/h
Temperature: 2°C
Dew Point: 1°C
Humidity: 93%
Barometer: 1034 hPa
Clouds: Clear
Visibility: 6 miles , 10 km
2018/09/24 01:50 EGUB 240150Z AUTO 06001KT 9999 // NCD 02/01 Q1034
 
EGKA - Shoreham-By-Sea, West Sussex, United Kingdom
Distance from station: E 48mi, 77km
Updated: 23/09/2018 18:50
NOT Current
Few Clouds
Few Clouds
 Wind from NW
Wind: NW 7 mph , 11 km/h
Temperature: 11°C
Dew Point: 4°C
Humidity: 62%
Barometer: 1024 hPa
Clouds: Few Clouds
Visibility: 6 miles , 10 km
Cloud details: Few Clouds 762 m
2018/09/23 17:50 EGKA 231750Z 31006KT 9999 FEW025 11/04 Q1024
EGVA - Fairford Raf, Gloucestershire, United Kingdom
Distance from station: NNW 51mi, 82km
Updated: 24/09/2018 02:56
Clear
Clear
 Wind from NW
Wind: NW 5 mph , 7 km/h
Temperature: 6°C
Wind Chill: 4°C
Dew Point: 4°C
Humidity: 87%
Barometer: 1034.5 hPa
Clouds: Clear
Visibility: 6 miles , 10 km
2018/09/24 01:56 EGVA 240156Z AUTO 32004KT 9999 CLR 06/04 A3055 RMK AO2 SLP351 T00640044 $
 
EGDY - Yeovilton (navy), Somerset, United Kingdom
Distance from station: W 54mi, 87km
Updated: 24/09/2018 02:50
Clear
Clear
 Wind from WNW
Wind: WNW 2 mph , 4 km/h
Temperature: 5°C
Dew Point: 4°C
Humidity: 93%
Barometer: 1035 hPa
Summary: Clear
Visibility: greater than 7 miles , 10 km
2018/09/24 01:50 EGDY 240150Z 30002KT CAVOK 05/04 Q1035 BLU
EGKK - London/Gatwick A, West Sussex, United Kingdom
Distance from station: ENE 54mi, 87km
Updated: 24/09/2018 02:50
Clear
Clear
 Wind from varies
Wind: varies 2 mph , 4 km/h
Temperature: 5°C
Dew Point: 4°C
Humidity: 93%
Barometer: 1034 hPa
Summary: Clear
Visibility: greater than 7 miles , 10 km
2018/09/24 01:50 EGKK 240150Z VRB02KT CAVOK 05/04 Q1034
 
EGLL - London/Heathrow, Middlesex, United Kingdom
Distance from station: NE 54mi, 87km
Updated: 24/09/2018 02:50
Clear
Clear
 Wind from WNW
Wind: WNW 5 mph , 7 km/h
Temperature: 6°C
Wind Chill: 4°C
Dew Point: 5°C
Humidity: 93%
Barometer: 1034 hPa
Clouds: Clear
Visibility: 6 miles , 10 km
2018/09/24 01:50 EGLL 240150Z AUTO 29004KT 9999 NCD 06/05 Q1034 NOSIG
EGVN - Brize Norton Raf, Oxfordshire, United Kingdom
Distance from station: N 56mi, 90km
Updated: 24/09/2018 02:50
Clear
Clear
 Wind from WNW
Wind: WNW 3 mph , 6 km/h
Temperature: 6°C
Dew Point: 4°C
Humidity: 87%
Barometer: 1034 hPa
Summary: Clear
Visibility: greater than 7 miles , 10 km
2018/09/24 01:50 EGVN 240150Z 29003KT CAVOK 06/04 Q1034 NOSIG
 
EGWU - Northolt Raf, Middlesex, United Kingdom
Distance from station: NE 58mi, 93km
Updated: 24/09/2018 02:50
Clear
Clear
 Wind from W
Wind: W 1 mph , 2 km/h
Temperature: 5°C
Dew Point: 4°C
Humidity: 93%
Barometer: 1034 hPa
Clouds: Clear
Visibility: 6 miles , 10 km
2018/09/24 01:50 EGWU 240150Z AUTO 26001KT 9999 // NCD 05/04 Q1034
EGGD - Bristol/Lulsgate, Somerset, United Kingdom
Distance from station: WNW 64mi, 103km
Updated: 24/09/2018 02:50
Clear
Clear
 Wind from NW
Wind: NW 6 mph , 9 km/h
Temperature: 7°C
Wind Chill: 6°C
Dew Point: 5°C
Humidity: 87%
Barometer: 1035 hPa
Clouds: Clear
Visibility: 6 miles , 10 km
2018/09/24 01:50 EGGD 240150Z AUTO 32005KT 9999 NCD 07/05 Q1035
 
EGKB - Biggin Hill, Kent,United Kingdom
Distance from station: ENE 65mi, 105km
Updated: 23/09/2018 21:20
NOT Current
Clear
Clear
 Wind from NNW
Wind: NNW 6 mph , 9 km/h
Temperature: 8°C
Wind Chill: 6°C
Dew Point: 5°C
Humidity: 82%
Barometer: 1028 hPa
Summary: Clear
Visibility: greater than 7 miles , 10 km
2018/09/23 20:20 EGKB 232020Z 34005KT CAVOK 08/05 Q1028
EGLC - London City Airp, Greater London, United Kingdom
Distance from station: ENE 72mi, 116km
Updated: 24/09/2018 02:50
Clear
Clear
 Wind from W
Wind: W 9 mph , 15 km/h
Temperature: 10°C
Wind Chill: 8°C
Dew Point: 6°C
Humidity: 76%
Barometer: 1034 hPa
Clouds: Clear
Visibility: 6 miles , 10 km
2018/09/24 01:50 EGLC 240150Z AUTO 28008KT 9999 NCD 10/06 Q1034
 
EGBJ - Staverton, Northamptonshire, United Kingdom
Distance from station: NNW 73mi, 117km
Updated: 23/09/2018 18:50
NOT Current
Few Clouds
Few Clouds
 Wind from NW
Wind: NW 3 mph , 6 km/h
Temperature: 11°C
Dew Point: 6°C
Humidity: 72%
Barometer: 1027 hPa
Clouds: Few Clouds
Visibility: 6 miles , 10 km
Cloud details: Few Clouds 1067 m
Few Clouds 1219 m
2018/09/23 17:50 EGBJ 231750Z 32003KT 9999 FEW035 FEW040CB 11/06 Q1027
EGGW - Luton Airport, Bedfordshire, United Kingdom
Distance from station: NE 76mi, 122km
Updated: 24/09/2018 02:50
Clear
Clear
 Wind from WNW
Wind: WNW 12 mph , 19 km/h
Temperature: 6°C
Wind Chill: 3°C
Dew Point: 5°C
Humidity: 93%
Barometer: 1033 hPa
Clouds: Clear
Visibility: 6 miles , 10 km
2018/09/24 01:50 EGGW 240150Z AUTO 30010KT 9999 NCD 06/05 Q1033